Time;durP1;ratioP1;P1;durP2;ratioP2;P2;SDS_P1;SDS_P2;PMS_P1;PMS_P2;Temp;Humidity;BMP_temperature;BMP_pressure;BME280_temperature;BME280_humidity;BME280_pressure;Samples;Min_cycle;Max_cycle;Signal;HPM_P1;HPM_P2
2022/01/23 00:02:27;;;;;;;35.17;27.13;;;;;;;5.59;94.15;103455.91;5206251;28;20049;-73
2022/01/23 00:05:04;;;;;;;32.47;27.17;;;;;;;5.62;94.96;103454.19;5211164;28;20473;-71
2022/01/23 00:07:37;;;;;;;31.10;25.70;;;;;;;5.56;94.51;103447.25;5210113;28;20022;-73
2022/01/23 00:10:10;;;;;;;30.67;27.10;;;;;;;5.59;94.76;103453.28;5210298;28;20041;-72
2022/01/23 00:12:47;;;;;;;30.37;25.17;;;;;;;5.54;94.36;103446.38;5212321;28;20040;-73
2022/01/23 00:18:08;;;;;;;33.60;25.30;;;;;;;5.47;95.13;103446.31;5210758;28;20033;-74
2022/01/23 00:20:40;;;;;;;31.13;25.90;;;;;;;5.51;94.98;103441.16;5211241;28;20030;-73
2022/01/23 00:23:32;;;;;;;32.27;25.80;;;;;;;5.44;94.66;103432.47;5209494;28;20124;-73
2022/01/23 00:31:44;;;;;;;35.27;26.23;;;;;;;5.45;95.42;103446.31;5209976;28;20092;-74
2022/01/23 00:34:15;;;;;;;34.27;25.77;;;;;;;5.30;95.61;103435.03;5209580;28;20069;-74
2022/01/23 00:36:47;;;;;;;31.47;25.67;;;;;;;5.38;95.57;103421.16;5210926;28;20029;-74
2022/01/23 00:39:18;;;;;;;30.63;24.93;;;;;;;5.35;95.36;103415.97;5209651;28;20112;-74
2022/01/23 00:41:49;;;;;;;34.20;25.87;;;;;;;5.44;95.47;103431.59;5209097;28;20033;-73
2022/01/23 00:44:21;;;;;;;32.77;27.00;;;;;;;5.55;94.90;103437.69;5209980;28;20030;-74
2022/01/23 00:46:52;;;;;;;34.87;26.47;;;;;;;5.40;95.51;103417.72;5208801;28;20077;-74
2022/01/23 00:49:26;;;;;;;35.60;28.07;;;;;;;5.39;95.44;103417.72;5208778;28;20033;-74
2022/01/23 00:51:57;;;;;;;30.80;26.15;;;;;;;5.43;95.49;103422.03;5210742;28;20029;-74
2022/01/23 00:54:29;;;;;;;36.60;26.77;;;;;;;5.49;95.32;103414.28;5209657;28;20022;-74
2022/01/23 00:57:00;;;;;;;31.80;26.37;;;;;;;5.34;95.26;103428.09;5209412;28;20754;-72
2022/01/23 00:59:31;;;;;;;29.63;26.00;;;;;;;5.40;95.64;103424.66;5211167;28;20037;-73
2022/01/23 01:02:03;;;;;;;28.57;24.97;;;;;;;5.42;95.31;103418.59;5210557;28;20040;-73
2022/01/23 01:04:34;;;;;;;31.23;25.00;;;;;;;5.51;95.45;103417.78;5210234;28;20053;-73
2022/01/23 01:07:05;;;;;;;30.13;24.97;;;;;;;5.41;95.79;103421.19;5208923;28;20029;-73
2022/01/23 01:09:37;;;;;;;34.83;26.30;;;;;;;5.51;95.56;103415.16;5209042;28;20342;-73
2022/01/23 01:12:16;;;;;;;29.43;23.80;;;;;;;5.49;95.54;103422.09;5210701;28;20034;-73
2022/01/23 01:31:27;;;;;;;35.07;24.40;;;;;;;5.46;95.88;103414.28;5213783;28;20037;-72
2022/01/23 01:34:04;;;;;;;32.83;24.40;;;;;;;5.61;95.19;103422.97;5213051;28;20038;-72
2022/01/23 01:36:50;;;;;;;31.73;24.70;;;;;;;5.61;95.19;103428.19;5211715;28;20487;-72
2022/01/23 01:39:26;;;;;;;31.87;24.17;;;;;;;5.40;96.32;103424.66;5207865;28;20026;-74
2022/01/23 01:41:57;;;;;;;30.57;24.40;;;;;;;5.56;94.88;103428.16;5211663;28;20075;-74
2022/01/23 01:44:30;;;;;;;31.60;25.60;;;;;;;5.60;94.99;103436.84;5206133;28;20746;-73
2022/01/23 01:47:01;;;;;;;27.90;24.63;;;;;;;5.52;95.50;103429.88;5209915;28;20393;-73
2022/01/23 01:49:33;;;;;;;29.27;23.63;;;;;;;5.53;95.12;103430.78;5209495;28;20026;-73
2022/01/23 01:52:05;;;;;;;31.37;24.60;;;;;;;5.62;95.08;103435.13;5210426;28;20022;-73
2022/01/23 01:54:36;;;;;;;29.60;24.10;;;;;;;5.60;95.21;103436.84;5208769;28;20040;-73
2022/01/23 01:57:10;;;;;;;33.40;25.20;;;;;;;5.62;94.42;103430.78;5210490;28;20076;-73
2022/01/23 02:02:51;;;;;;;31.55;25.80;;;;;;;5.57;95.00;103437.69;5206371;28;20033;-73
2022/01/23 02:08:27;;;;;;;32.97;24.27;;;;;;;5.55;94.74;103432.50;5210031;28;20038;-72
2022/01/23 02:11:07;;;;;;;30.30;24.07;;;;;;;5.52;95.32;103445.50;5210530;28;20026;-73
2022/01/23 02:13:50;;;;;;;32.77;24.90;;;;;;;5.41;95.10;103429.84;5208703;28;20037;-74
2022/01/23 02:52:56;;;;;;;32.27;24.80;;;;;;;5.34;96.26;103394.31;5210284;28;20491;-73
2022/01/23 02:55:34;;;;;;;28.47;22.87;;;;;;;5.35;95.79;103397.75;5207760;28;20080;-73
2022/01/23 02:58:09;;;;;;;32.57;22.17;;;;;;;5.35;95.81;103395.16;5209618;28;20036;-73
2022/01/23 03:01:07;;;;;;;34.87;23.67;;;;;;;5.44;95.36;103387.41;5209851;28;20042;-73
2022/01/23 03:03:43;;;;;;;32.03;24.07;;;;;;;5.33;95.77;103393.44;5206606;28;20041;-74
2022/01/23 03:06:50;;;;;;;32.90;23.37;;;;;;;5.45;95.71;103402.13;5209690;28;20336;-73
2022/01/23 03:30:54;;;;;;;26.83;22.97;;;;;;;5.31;96.40;103408.16;5209080;28;20038;-72
2022/01/23 03:33:25;;;;;;;29.20;22.43;;;;;;;5.39;95.44;103404.72;5209055;28;20037;-73
2022/01/23 03:35:56;;;;;;;27.20;23.03;;;;;;;5.39;95.49;103405.59;5207592;28;20568;-71
2022/01/23 03:38:28;;;;;;;29.17;23.20;;;;;;;5.46;95.32;103409.09;5208312;28;20041;-72
2022/01/23 03:40:59;;;;;;;28.97;22.83;;;;;;;5.33;95.62;103398.66;5208581;28;20036;-73
2022/01/23 03:43:34;;;;;;;29.43;22.73;;;;;;;5.36;95.61;103409.91;5209461;28;20022;-72
2022/01/23 03:51:43;;;;;;;28.23;22.20;;;;;;;5.47;95.08;103410.81;5208985;28;20037;-72
2022/01/23 03:54:14;;;;;;;33.67;23.67;;;;;;;5.42;95.44;103407.31;5208351;28;20042;-72
2022/01/23 03:56:45;;;;;;;32.17;24.50;;;;;;;5.45;95.04;103412.53;5206786;28;20774;-72
2022/01/23 03:59:16;;;;;;;31.00;23.10;;;;;;;5.40;95.15;103409.94;5208925;28;20025;-71
2022/01/23 04:01:48;;;;;;;32.23;24.70;;;;;;;5.41;95.44;103416.00;5202904;28;20057;-72
2022/01/23 04:04:36;;;;;;;35.87;26.03;;;;;;;5.20;95.54;103417.66;5198358;28;20571;-72
2022/01/23 04:07:14;;;;;;;35.57;25.57;;;;;;;5.39;95.63;103412.53;5204551;28;20025;-72
2022/01/23 04:09:47;;;;;;;35.80;25.83;;;;;;;5.33;95.81;103427.22;5192523;28;20133;-73
2022/01/23 04:15:22;;;;;;;33.57;25.03;;;;;;;5.32;95.48;103422.88;5196805;28;20034;-73
2022/01/23 04:59:46;;;;;;;36.73;27.90;;;;;;;5.06;96.37;103434.00;5203032;28;20061;-72
2022/01/23 05:04:51;;;;;;;33.38;27.23;;;;;;;5.16;96.81;103445.34;5211718;28;20049;-73
2022/01/23 05:07:27;;;;;;;35.43;28.07;;;;;;;5.14;97.15;103435.78;5211430;28;20068;-72
2022/01/23 05:09:59;;;;;;;36.70;26.83;;;;;;;5.26;96.16;103425.47;5210660;28;20795;-72
2022/01/23 05:12:33;;;;;;;33.00;27.30;;;;;;;5.25;96.98;103434.13;5211291;28;20044;-72
2022/01/23 05:15:06;;;;;;;36.97;27.20;;;;;;;5.40;96.45;103440.25;5211375;28;20076;-72
2022/01/23 05:17:38;;;;;;;39.15;26.95;;;;;;;5.38;96.36;103422.03;5206172;28;20030;-72
2022/01/23 05:20:12;;;;;;;37.00;28.13;;;;;;;5.29;96.76;103427.19;5203304;28;20485;-72
2022/01/23 05:22:49;;;;;;;37.45;27.88;;;;;;;5.35;96.61;103431.56;5210781;28;20030;-72
2022/01/23 05:25:25;;;;;;;35.80;28.17;;;;;;;5.28;97.27;103436.75;5209938;28;20026;-72
2022/01/23 05:27:56;;;;;;;37.03;28.13;;;;;;;5.33;96.55;103423.75;5210393;28;20167;-72
2022/01/23 05:30:28;;;;;;;36.67;28.40;;;;;;;5.35;96.44;103423.75;5210829;28;20564;-72
2022/01/23 05:33:00;;;;;;;34.87;27.97;;;;;;;5.47;96.39;103433.31;5206930;28;20030;-73
2022/01/23 05:35:32;;;;;;;36.13;27.23;;;;;;;5.41;96.18;103422.03;5210977;28;20030;-72
2022/01/23 05:38:03;;;;;;;36.67;27.83;;;;;;;5.41;96.00;103445.44;5210961;28;20029;-72
2022/01/23 05:40:34;;;;;;;37.97;29.20;;;;;;;5.31;96.35;103426.34;5212792;28;20664;-72
2022/01/23 05:43:06;;;;;;;36.60;26.40;;;;;;;5.46;95.45;103432.47;5213732;28;20022;-73
2022/01/23 05:45:41;;;;;;;33.60;26.73;;;;;;;5.52;95.88;103439.41;5211618;28;20026;-72
2022/01/23 05:48:12;;;;;;;31.53;26.07;;;;;;;5.41;96.66;103442.84;5210663;28;20032;-72
2022/01/23 05:50:45;;;;;;;38.03;27.77;;;;;;;5.50;95.64;103442.00;5209773;28;20038;-73
2022/01/23 05:53:17;;;;;;;39.10;27.90;;;;;;;5.41;95.97;103437.63;5208792;28;20026;-72
2022/01/23 05:55:48;;;;;;;34.03;26.33;;;;;;;5.55;95.56;103436.84;5208285;28;20452;-72
2022/01/23 05:58:19;;;;;;;33.60;25.53;;;;;;;5.27;96.40;103424.59;5208631;28;20040;-73
2022/01/23 06:00:51;;;;;;;36.13;27.47;;;;;;;5.44;95.85;103416.00;5209856;28;20033;-72
2022/01/23 06:03:22;;;;;;;39.67;27.10;;;;;;;5.38;96.03;103418.56;5210141;28;20046;-73
2022/01/23 06:05:54;;;;;;;35.60;27.60;;;;;;;5.47;96.03;103430.72;5210855;28;20026;-72
2022/01/23 06:08:25;;;;;;;34.07;26.97;;;;;;;5.47;95.96;103431.59;5210174;28;20633;-72
2022/01/23 06:10:57;;;;;;;34.80;26.50;;;;;;;5.34;96.20;103430.72;5210097;28;20088;-73
2022/01/23 06:13:29;;;;;;;36.93;29.50;;;;;;;5.39;96.09;103431.59;5210146;28;20180;-72
2022/01/23 06:16:01;;;;;;;35.00;27.00;;;;;;;5.38;96.09;103428.97;5208648;28;20041;-73
2022/01/23 06:18:35;;;;;;;35.10;26.70;;;;;;;5.36;96.38;103438.50;5198157;28;20488;-73
2022/01/23 06:21:07;;;;;;;37.40;28.60;;;;;;;5.31;96.72;103425.47;5209777;28;20057;-72
2022/01/23 06:23:39;;;;;;;39.77;29.10;;;;;;;5.39;95.82;103443.72;5207529;28;20026;-72
2022/01/23 06:26:10;;;;;;;43.60;27.70;;;;;;;5.35;96.17;103436.75;5204776;28;20041;-72
2022/01/23 06:28:51;;;;;;;35.63;28.07;;;;;;;5.38;96.10;103436.75;5207606;28;20022;-72
2022/01/23 06:31:23;;;;;;;35.13;26.87;;;;;;;5.35;95.82;103421.16;5210045;28;20021;-72
2022/01/23 06:33:54;;;;;;;39.83;30.70;;;;;;;5.42;96.02;103443.72;5209189;28;20029;-73
2022/01/23 06:36:26;;;;;;;34.80;28.63;;;;;;;5.33;96.44;103429.81;5207076;28;20026;-73
2022/01/23 06:38:58;;;;;;;38.07;30.50;;;;;;;5.23;95.99;103428.06;5208861;28;20076;-73
2022/01/23 06:41:30;;;;;;;42.07;29.83;;;;;;;5.14;97.12;103428.00;5205430;28;20515;-73
2022/01/23 06:44:04;;;;;;;35.40;28.23;;;;;;;5.21;97.13;103437.56;5201335;28;20057;-72
2022/01/23 06:46:35;;;;;;;35.00;28.42;;;;;;;5.33;96.56;103447.16;5205374;28;20108;-72
2022/01/23 06:49:07;;;;;;;34.93;29.60;;;;;;;5.20;96.99;103448.84;5203816;28;20109;-72
2022/01/23 06:51:39;;;;;;;36.83;29.80;;;;;;;5.23;96.82;103459.22;5223490;28;20037;-73
2022/01/23 06:54:11;;;;;;;39.13;31.37;;;;;;;5.18;96.64;103455.75;5206342;28;20400;-73
2022/01/23 06:56:42;;;;;;;42.00;33.00;;;;;;;5.17;96.75;103452.28;5206840;28;20576;-72
2022/01/23 06:59:14;;;;;;;42.60;30.87;;;;;;;5.24;96.89;103449.69;5207999;28;20057;-72
2022/01/23 07:01:45;;;;;;;39.63;30.73;;;;;;;5.24;96.88;103450.56;5207187;28;20022;-72
2022/01/23 07:04:16;;;;;;;37.47;30.23;;;;;;;5.26;96.31;103450.56;5208326;28;20133;-73
2022/01/23 07:06:47;;;;;;;37.73;29.67;;;;;;;5.22;96.48;103454.88;5207113;28;20033;-72
2022/01/23 07:09:19;;;;;;;37.43;28.53;;;;;;;5.14;97.06;103469.56;5208255;28;20915;-73
2022/01/23 07:11:50;;;;;;;45.60;30.27;;;;;;;5.18;96.44;103461.78;5208877;28;20044;-73
2022/01/23 07:14:21;;;;;;;41.67;29.80;;;;;;;5.29;96.62;103466.16;5209054;28;20041;-72
2022/01/23 07:16:52;;;;;;;37.23;30.10;;;;;;;5.19;96.70;103458.34;5208924;28;20034;-72
2022/01/23 07:19:24;;;;;;;39.57;29.53;;;;;;;5.32;95.86;103477.44;5197697;28;20026;-73
2022/01/23 07:21:55;;;;;;;40.77;30.37;;;;;;;5.35;96.36;103475.72;5198972;28;20084;-73
2022/01/23 07:24:26;;;;;;;42.37;30.67;;;;;;;5.29;95.88;103474.84;5208304;28;20018;-73
2022/01/23 07:27:00;;;;;;;40.47;31.57;;;;;;;5.37;96.18;103489.59;5209392;28;20037;-73
2022/01/23 07:29:32;;;;;;;41.78;31.38;;;;;;;5.37;96.06;103492.22;5195262;28;20036;-71
2022/01/23 07:32:08;;;;;;;40.03;29.33;;;;;;;5.27;96.41;103492.16;5209686;28;20030;-73
2022/01/23 07:34:39;;;;;;;41.87;32.20;;;;;;;5.16;96.48;103489.50;5211444;28;20022;-73
2022/01/23 07:37:12;;;;;;;40.70;30.93;;;;;;;5.03;96.47;103485.94;5209130;28;20683;-73
2022/01/23 07:39:43;;;;;;;39.63;30.17;;;;;;;5.14;96.97;103500.75;5208134;28;20489;-73
2022/01/23 07:42:15;;;;;;;37.97;29.03;;;;;;;5.14;97.52;103491.22;5208017;28;20034;-72
2022/01/23 07:44:46;;;;;;;38.27;30.37;;;;;;;5.28;96.88;103503.41;5205996;28;20058;-72
2022/01/23 07:47:17;;;;;;;41.73;31.93;;;;;;;5.26;96.95;103505.13;5198933;28;20425;-72
2022/01/23 07:49:50;;;;;;;38.00;28.87;;;;;;;5.11;97.42;103506.81;5208564;28;20485;-71
2022/01/23 07:52:21;;;;;;;41.23;32.40;;;;;;;5.29;96.65;103510.34;5200580;28;20037;-72
2022/01/23 07:54:52;;;;;;;40.23;31.27;;;;;;;5.19;96.23;103494.72;5203700;28;20029;-72
2022/01/23 07:57:23;;;;;;;36.17;28.97;;;;;;;5.22;96.87;103517.25;5203862;28;20615;-72
2022/01/23 07:59:54;;;;;;;41.20;31.47;;;;;;;5.26;96.73;103515.53;5208894;28;20041;-72
2022/01/23 08:02:26;;;;;;;42.33;31.67;;;;;;;5.25;96.97;103514.69;5202386;28;20046;-72
2022/01/23 08:04:57;;;;;;;40.97;32.37;;;;;;;5.35;96.45;103507.81;5202700;28;20072;-72
2022/01/23 08:10:05;;;;;;;40.97;30.60;;;;;;;5.28;97.28;103506.03;5208787;28;20038;-72
2022/01/23 08:12:36;;;;;;;;;;;;;;;5.50;96.80;103509.59;5207977;28;20030;-73
2022/01/23 08:15:09;;;;;;;42.23;30.93;;;;;;;5.39;96.60;103511.28;5201697;28;19920;-73
2022/01/23 08:17:40;;;;;;;40.60;31.23;;;;;;;5.32;96.59;103511.22;5203819;28;20023;-72
2022/01/23 08:20:11;;;;;;;40.57;30.63;;;;;;;5.10;97.22;103501.59;5218973;28;20065;-73
2022/01/23 08:22:43;;;;;;;40.70;31.20;;;;;;;5.23;97.59;103516.41;5208853;28;20030;-72
2022/01/23 08:25:14;;;;;;;42.53;31.13;;;;;;;5.33;96.92;103510.41;5209008;28;20041;-73
2022/01/23 08:27:45;;;;;;;39.27;30.00;;;;;;;5.38;96.71;103515.59;5206594;28;20022;-73
2022/01/23 08:30:17;;;;;;;42.20;32.30;;;;;;;5.45;96.52;103519.97;5210987;28;20069;-73
2022/01/23 08:32:48;;;;;;;41.63;31.50;;;;;;;5.34;96.17;103513.88;5212023;28;20108;-72
2022/01/23 08:35:20;;;;;;;39.57;31.47;;;;;;;5.42;96.34;103524.28;5211636;28;20036;-72
2022/01/23 08:37:52;;;;;;;42.93;32.80;;;;;;;5.28;96.52;103525.09;5210010;28;20111;-72
2022/01/23 08:40:45;;;;;;;42.20;31.03;;;;;;;5.33;96.43;103531.19;5210410;28;20503;-73
2022/01/23 08:43:16;;;;;;;40.10;30.77;;;;;;;5.35;96.28;103535.50;5199248;28;20472;-72
2022/01/23 08:45:48;;;;;;;38.43;30.17;;;;;;;5.43;96.03;103539.00;5210096;28;20389;-72
2022/01/23 08:48:19;;;;;;;41.47;31.50;;;;;;;5.49;95.76;103541.66;5212347;28;20030;-72
2022/01/23 08:50:50;;;;;;;42.57;31.83;;;;;;;5.45;95.99;103543.38;5212883;28;20088;-72
2022/01/23 08:53:22;;;;;;;38.93;30.43;;;;;;;5.50;96.06;103543.38;5208474;28;20026;-73
2022/01/23 08:55:53;;;;;;;44.57;31.00;;;;;;;5.48;95.83;103546.84;5212231;28;20030;-72
2022/01/23 08:58:24;;;;;;;41.40;31.47;;;;;;;5.35;95.53;103545.91;5211192;28;20037;-72
2022/01/23 09:00:56;;;;;;;40.67;30.03;;;;;;;5.42;95.59;103552.88;5205494;28;20045;-72
2022/01/23 09:03:27;;;;;;;44.03;32.63;;;;;;;5.42;95.86;103543.38;5208793;28;20144;-72
2022/01/23 09:05:58;;;;;;;41.10;30.47;;;;;;;5.50;96.04;103551.19;5214543;28;20116;-73
2022/01/23 09:08:29;;;;;;;45.37;32.57;;;;;;;5.50;95.96;103543.38;5211011;28;20030;-73
2022/01/23 09:11:07;;;;;;;44.53;32.53;;;;;;;5.48;96.12;103537.31;5211615;28;20034;-72
2022/01/23 09:16:10;;;;;;;41.60;32.27;;;;;;;5.53;95.88;103543.41;5211858;28;20887;-73
2022/01/23 09:18:42;;;;;;;40.80;32.03;;;;;;;5.43;95.96;103549.41;5209617;28;20032;-73
2022/01/23 09:21:13;;;;;;;38.23;30.63;;;;;;;5.33;96.17;103536.38;5210702;28;20045;-73
2022/01/23 09:23:44;;;;;;;40.53;30.77;;;;;;;5.31;96.24;103530.31;5210505;28;20053;-71
2022/01/23 09:26:18;;;;;;;48.93;33.47;;;;;;;5.53;95.92;103546.00;5210245;28;20030;-72
2022/01/23 09:28:54;;;;;;;44.17;34.72;;;;;;;5.59;95.82;103539.09;5209146;28;20045;-72
2022/01/23 09:31:45;;;;;;;51.77;37.77;;;;;;;5.41;96.65;103531.22;5211280;28;20022;-74
2022/01/23 09:34:19;;;;;;;46.40;33.97;;;;;;;5.61;95.88;103539.97;5211861;28;20022;-73
2022/01/23 09:36:52;;;;;;;43.42;32.55;;;;;;;5.59;95.77;103542.56;5211117;28;20028;-73
2022/01/23 09:39:24;;;;;;;39.77;32.10;;;;;;;5.49;95.36;103515.66;5208847;28;20962;-74
2022/01/23 09:42:06;;;;;;;44.37;31.87;;;;;;;5.57;96.43;103542.56;5210597;28;20029;-71
2022/01/23 09:44:43;;;;;;;44.20;31.53;;;;;;;5.69;96.08;103546.06;5210781;28;20499;-73
2022/01/23 09:47:16;;;;;;;40.87;34.10;;;;;;;5.56;96.55;103542.56;5205904;28;20488;-73
2022/01/23 09:49:50;;;;;;;40.23;32.33;;;;;;;5.68;95.71;103546.94;5208269;28;20026;-72
2022/01/23 09:52:22;;;;;;;45.03;33.95;;;;;;;5.69;96.22;103557.34;5208733;28;20034;-72
2022/01/23 09:54:57;;;;;;;41.67;32.03;;;;;;;5.70;95.11;103547.84;5210920;28;20717;-72
2022/01/23 09:57:33;;;;;;;43.40;31.83;;;;;;;5.78;94.66;103558.25;5196534;28;20542;-72
2022/01/23 10:00:12;;;;;;;44.17;32.43;;;;;;;5.72;94.44;103563.44;5223748;28;20057;-72
2022/01/23 10:02:46;;;;;;;44.43;32.43;;;;;;;5.76;94.64;103560.84;5211238;28;20516;-72
2022/01/23 10:05:19;;;;;;;46.80;33.37;;;;;;;5.81;94.85;103560.88;5210014;28;20048;-74
2022/01/23 10:07:52;;;;;;;42.53;32.63;;;;;;;5.84;95.19;103573.03;5208582;28;20038;-73
2022/01/23 10:10:29;;;;;;;49.07;33.73;;;;;;;5.80;95.62;103561.72;5192404;28;20030;-73
2022/01/23 10:13:00;;;;;;;44.43;33.47;;;;;;;5.83;95.85;103563.50;5211356;28;20026;-74
2022/01/23 10:15:32;;;;;;;43.03;32.53;;;;;;;5.73;95.19;103552.16;5199373;28;20429;-73
2022/01/23 10:18:04;;;;;;;43.30;32.37;;;;;;;5.79;94.50;103560.88;5212212;28;20486;-74
2022/01/23 10:20:35;;;;;;;43.57;32.57;;;;;;;5.76;94.97;103566.06;5194218;28;20033;-72
2022/01/23 10:23:08;;;;;;;43.57;32.00;;;;;;;5.72;93.89;103561.72;5190488;28;20434;-72
2022/01/23 10:25:42;;;;;;;40.47;31.93;;;;;;;5.81;94.22;103560.88;5204764;28;20128;-73
2022/01/23 10:28:20;;;;;;;42.23;31.83;;;;;;;5.98;94.26;103555.75;5203856;28;20029;-73
2022/01/23 10:30:55;;;;;;;39.17;31.80;;;;;;;6.00;94.25;103555.75;5202805;28;20041;-73
2022/01/23 10:33:32;;;;;;;40.63;31.67;;;;;;;6.03;93.76;103550.56;5209588;28;20045;-73
2022/01/23 10:36:09;;;;;;;40.63;32.50;;;;;;;6.08;93.39;103555.78;5209434;28;20137;-77
2022/01/23 10:38:43;;;;;;;38.80;31.67;;;;;;;5.99;93.10;103554.88;5203570;28;20034;-72
2022/01/23 10:47:31;;;;;;;45.23;32.93;;;;;;;5.97;93.98;103555.75;5200684;28;20121;-73
2022/01/23 10:50:08;;;;;;;41.20;31.53;;;;;;;6.14;93.45;103559.28;5207453;28;20034;-73
2022/01/23 10:52:47;;;;;;;38.03;31.10;;;;;;;6.17;92.70;103553.22;5206202;28;20036;-72
2022/01/23 10:55:25;;;;;;;41.23;31.63;;;;;;;6.21;92.78;103554.09;5200034;28;20029;-74
2022/01/23 10:58:01;;;;;;;40.60;31.33;;;;;;;6.26;92.13;103541.97;5204442;28;20037;-71
2022/01/23 11:00:34;;;;;;;42.93;33.60;;;;;;;6.31;92.23;103549.78;5202845;28;20069;-71
2022/01/23 11:03:22;;;;;;;38.03;31.50;;;;;;;6.22;93.47;103545.41;5205974;28;20050;-72
2022/01/23 11:05:53;;;;;;;46.07;33.03;;;;;;;6.21;92.20;103538.50;5204709;28;20042;-73
2022/01/23 11:08:27;;;;;;;39.57;32.07;;;;;;;6.28;91.71;103553.25;5192591;28;20485;-73
2022/01/23 11:11:01;;;;;;;40.35;32.97;;;;;;;6.33;91.97;103542.84;5192305;28;20109;-75
2022/01/23 11:19:40;;;;;;;40.03;30.63;;;;;;;6.47;91.89;103540.28;5189398;28;20043;-76
2022/01/23 11:22:17;;;;;;;38.70;31.73;;;;;;;6.44;91.55;103533.31;5192252;28;20037;-77
2022/01/23 11:24:48;;;;;;;37.57;30.90;;;;;;;6.42;91.17;103540.28;5192298;28;20116;-76
2022/01/23 11:27:22;;;;;;;40.60;29.63;;;;;;;6.43;90.94;103530.72;5195773;28;20026;-73
2022/01/23 11:30:05;;;;;;;36.00;29.13;;;;;;;6.48;91.34;103532.47;5202190;28;20050;-74
2022/01/23 11:32:39;;;;;;;36.03;28.20;;;;;;;6.45;90.52;103531.59;5188353;28;20026;-75
2022/01/23 11:35:14;;;;;;;35.65;27.77;;;;;;;6.51;90.29;103519.44;5190815;28;20023;-74
2022/01/23 11:37:51;;;;;;;36.57;28.63;;;;;;;6.49;89.14;103525.53;5199206;28;20022;-73
2022/01/23 11:40:36;;;;;;;33.37;26.63;;;;;;;6.54;89.57;103521.19;5197334;28;20057;-77
2022/01/23 11:54:50;;;;;;;37.03;29.33;;;;;;;6.56;90.91;103514.25;5194340;28;20451;-75
2022/01/23 11:57:37;;;;;;;39.40;30.67;;;;;;;6.68;91.61;103512.50;5188772;28;20756;-74
2022/01/23 12:00:31;;;;;;;43.50;31.07;;;;;;;6.67;90.63;103508.19;5191315;28;20038;-76
2022/01/23 12:03:17;;;;;;;41.37;30.57;;;;;;;6.58;92.22;103507.28;5195186;28;20062;-75
2022/01/23 12:06:10;;;;;;;36.23;29.37;;;;;;;6.45;90.18;103506.44;5199060;28;20022;-75
2022/01/23 12:08:41;;;;;;;34.17;30.20;;;;;;;6.51;89.79;103508.19;5191080;28;20120;-73
2022/01/23 12:16:58;;;;;;;35.70;28.10;;;;;;;6.39;89.45;103496.88;5191697;28;20092;-72
2022/01/23 12:19:31;;;;;;;35.47;28.67;;;;;;;6.66;88.82;103494.28;5204918;28;20014;-73
2022/01/23 12:22:32;;;;;;;35.30;28.27;;;;;;;6.76;89.03;103490.78;5191950;28;20054;-72
2022/01/23 12:25:22;;;;;;;34.47;26.33;;;;;;;6.67;88.92;103475.16;5201857;28;20316;-73
2022/01/23 12:28:14;;;;;;;32.67;26.47;;;;;;;6.87;89.36;103492.53;5195423;28;20042;-72
2022/01/23 12:30:46;;;;;;;32.03;25.87;;;;;;;6.53;87.17;103488.19;5192002;28;20977;-73
2022/01/23 12:33:31;;;;;;;35.20;26.10;;;;;;;6.82;87.65;103484.72;5190627;28;20022;-72
2022/01/23 12:36:19;;;;;;;30.00;25.08;;;;;;;6.80;86.90;103480.38;5196904;28;20026;-72
2022/01/23 12:39:09;;;;;;;32.90;25.70;;;;;;;6.78;87.31;103478.66;5199138;28;20409;-73
2022/01/23 12:42:02;;;;;;;34.73;26.13;;;;;;;6.85;87.14;103483.84;5190893;28;20027;-73
2022/01/23 12:44:39;;;;;;;34.37;26.27;;;;;;;6.71;87.13;103487.31;5200436;28;20030;-72
2022/01/23 12:47:18;;;;;;;32.83;26.03;;;;;;;6.86;86.79;103477.78;5191507;28;20062;-73
2022/01/23 12:49:53;;;;;;;32.03;26.53;;;;;;;6.89;86.92;103480.38;5205869;28;20065;-72
2022/01/23 12:52:25;;;;;;;35.23;28.27;;;;;;;6.88;86.40;103476.88;5195608;28;20034;-72
2022/01/23 12:54:59;;;;;;;35.70;26.57;;;;;;;6.82;85.93;103466.50;5201831;28;20034;-72
2022/01/23 12:57:37;;;;;;;35.43;27.07;;;;;;;6.79;85.54;103479.50;5198366;28;20045;-74
2022/01/23 13:00:15;;;;;;;35.07;27.30;;;;;;;6.89;85.49;103477.75;5193526;28;20041;-73
2022/01/23 13:02:50;;;;;;;40.67;28.73;;;;;;;6.93;85.08;103468.19;5191712;28;20151;-75
2022/01/23 13:05:22;;;;;;;35.20;28.27;;;;;;;6.89;85.54;103462.97;5192428;28;20026;-72
2022/01/23 13:10:54;;;;;;;38.00;30.17;;;;;;;6.88;86.57;103458.66;5203507;28;20038;-73
2022/01/23 13:13:36;;;;;;;34.03;27.10;;;;;;;6.98;84.80;103456.03;5211575;28;20049;-72
2022/01/23 13:30:21;;;;;;;31.87;24.67;;;;;;;7.04;84.26;103452.53;5207325;28;20041;-71
2022/01/23 13:33:02;;;;;;;38.33;27.97;;;;;;;7.09;84.71;103446.44;5203783;28;20125;-72
2022/01/23 13:35:39;;;;;;;36.40;28.73;;;;;;;7.05;84.96;103452.50;5190458;28;20026;-73
2022/01/23 13:38:15;;;;;;;38.87;27.53;;;;;;;7.06;85.20;103442.97;5210861;28;20023;-73
2022/01/23 13:40:57;;;;;;;37.00;25.90;;;;;;;7.10;84.90;103453.38;5196772;28;20761;-73
2022/01/23 13:52:02;;;;;;;37.33;28.60;;;;;;;7.11;85.31;103449.91;5209735;28;20436;-76
2022/01/23 14:00:04;;;;;;;39.50;28.63;;;;;;;7.17;84.91;103438.59;5199543;28;20034;-74
2022/01/23 14:02:55;;;;;;;34.03;27.80;;;;;;;7.28;85.82;103443.75;5201464;28;20461;-73
2022/01/23 14:05:31;;;;;;;35.60;28.53;;;;;;;7.18;85.32;103436.84;5208571;28;21806;-76
2022/01/23 14:08:05;;;;;;;37.13;29.73;;;;;;;7.15;86.31;103427.31;5194014;28;20046;-73
2022/01/23 14:10:38;;;;;;;37.63;29.27;;;;;;;7.13;86.04;103432.53;5200652;28;20369;-71
2022/01/23 14:13:16;;;;;;;40.53;29.70;;;;;;;7.01;85.80;103419.53;5196105;28;20076;-72
2022/01/23 14:15:50;;;;;;;37.37;29.90;;;;;;;6.95;85.12;103412.59;5197135;28;20527;-73
2022/01/23 14:18:30;;;;;;;39.38;31.10;;;;;;;7.10;85.15;103426.47;5198607;28;20923;-72
2022/01/23 14:21:05;;;;;;;40.00;30.80;;;;;;;7.11;85.37;103428.19;5196509;28;20092;-73
2022/01/23 14:23:36;;;;;;;41.17;29.37;;;;;;;6.89;85.72;103423.91;5196899;28;20830;-75
2022/01/23 14:26:15;;;;;;;39.60;31.40;;;;;;;7.11;86.06;103438.59;5196996;28;20040;-71
2022/01/23 14:28:50;;;;;;;42.03;29.27;;;;;;;7.07;85.81;103442.13;5197337;28;20107;-76
2022/01/23 14:31:25;;;;;;;38.87;30.00;;;;;;;7.24;86.29;103442.91;5192638;28;20049;-77
2022/01/23 14:33:59;;;;;;;;;;;;;;;7.37;86.76;103441.13;5198600;28;20026;-71
2022/01/23 14:36:38;;;;;;;35.40;28.57;;;;;;;7.33;85.78;103443.75;5196552;28;20424;-73
2022/01/23 14:39:12;;;;;;;40.23;29.60;;;;;;;7.25;85.88;103436.84;5197606;28;20029;-73
2022/01/23 14:41:45;;;;;;;45.45;29.50;;;;;;;7.24;85.77;103450.72;5197180;28;20026;-73
2022/01/23 14:44:20;;;;;;;37.10;28.97;;;;;;;7.28;85.80;103448.97;5196401;28;20041;-77
2022/01/23 14:46:54;;;;;;;38.13;29.87;;;;;;;7.25;85.39;103449.88;5204195;28;20030;-76
2022/01/23 14:49:29;;;;;;;36.85;28.23;;;;;;;7.26;85.12;103448.97;5198728;28;20030;-76
2022/01/23 14:52:01;;;;;;;;;;;;;;;7.42;86.16;103443.69;5198115;28;20033;-73
2022/01/23 14:54:33;;;;;;;41.30;29.03;;;;;;;7.10;84.26;103439.50;5201452;28;21113;-82
2022/01/23 14:57:07;;;;;;;34.83;27.37;;;;;;;7.04;84.44;103439.50;5196921;28;20050;-81
2022/01/23 14:59:38;;;;;;;36.10;27.43;;;;;;;7.14;84.61;103441.19;5198174;28;20499;-76
2022/01/23 15:02:10;;;;;;;36.47;28.17;;;;;;;6.94;84.31;103442.16;5197993;28;20038;-77
2022/01/23 15:04:44;;;;;;;37.83;29.00;;;;;;;6.95;86.24;103443.00;5199777;28;20026;-82
2022/01/23 15:07:17;;;;;;;35.33;29.00;;;;;;;7.00;86.09;103444.72;5198050;28;20021;-83
2022/01/23 15:09:50;;;;;;;34.37;27.43;;;;;;;7.13;85.49;103444.69;5203694;28;20713;-81
2022/01/23 15:12:21;;;;;;;38.07;29.77;;;;;;;7.01;85.56;103433.44;5209687;28;20034;-81
2022/01/23 15:14:52;;;;;;;37.23;29.27;;;;;;;6.88;86.09;103437.81;5218608;28;20072;-81
2022/01/23 15:17:25;;;;;;;35.40;29.03;;;;;;;7.04;84.91;103448.19;5203105;28;20042;-82
2022/01/23 15:19:57;;;;;;;37.03;27.27;;;;;;;6.91;85.61;103444.75;5194058;28;20022;-83